Time;durP1;ratioP1;P1;durP2;ratioP2;P2;SDS_P1;SDS_P2;PMS_P1;PMS_P2;Temp;Humidity;BMP_temperature;BMP_pressure;BME280_temperature;BME280_humidity;BME280_pressure;Samples;Min_cycle;Max_cycle;Signal;HPM_P1;HPM_P2
2021/04/01 00:00:54;;;;;;;0.98;0.85;;;;;;;6.61;53.30;101255.69;1727907;82;21134;-47
2021/04/01 00:03:22;;;;;;;1.22;1.12;;;;;;;6.55;53.67;101257.98;1725811;83;21107;-47
2021/04/01 00:05:49;;;;;;;0.95;0.90;;;;;;;6.54;53.97;101258.20;1744902;81;21135;-47
2021/04/01 00:08:17;;;;;;;0.10;0.10;;;;;;;6.49;54.28;101254.01;1724043;83;21296;-48
2021/04/01 00:10:46;;;;;;;1.35;1.25;;;;;;;6.45;54.55;101253.63;1719057;83;21933;-47
2021/04/01 00:13:14;;;;;;;4.65;0.80;;;;;;;6.40;55.00;101254.32;1724073;83;21171;-48
2021/04/01 00:15:42;;;;;;;0.70;0.70;;;;;;;6.39;55.38;101249.97;1721337;83;21430;-48
2021/04/01 00:18:11;;;;;;;1.82;1.42;;;;;;;6.38;55.74;101251.03;1718988;83;21155;-47
2021/04/01 00:20:40;;;;;;;0.85;0.82;;;;;;;6.37;55.92;101243.94;1748678;81;21135;-47
2021/04/01 00:23:08;;;;;;;2.42;0.88;;;;;;;6.38;56.13;101242.04;1721726;83;21565;-47
2021/04/01 00:25:36;;;;;;;1.55;1.07;;;;;;;6.38;56.28;101239.33;1721310;83;21102;-47
2021/04/01 00:28:04;;;;;;;0.47;0.45;;;;;;;6.37;56.46;101230.36;1723840;83;21119;-47
2021/04/01 00:30:31;;;;;;;0.25;0.23;;;;;;;6.37;56.68;101229.54;1726464;82;21154;-48
2021/04/01 00:32:59;;;;;;;1.30;1.25;;;;;;;6.37;56.89;101229.54;1728142;82;21205;-47
2021/04/01 00:35:26;;;;;;;0.10;0.10;;;;;;;6.37;57.03;101227.64;1731919;82;21146;-47
2021/04/01 00:37:55;;;;;;;0.62;0.62;;;;;;;6.39;57.15;101224.71;1703073;84;21422;-46
2021/04/01 00:40:25;;;;;;;1.20;1.10;;;;;;;6.40;57.30;101223.64;1702964;84;21142;-48
2021/04/01 00:42:53;;;;;;;1.17;1.07;;;;;;;6.40;57.34;101228.53;1732309;82;21425;-47
2021/04/01 00:45:20;;;;;;;0.90;0.90;;;;;;;6.43;57.52;101222.66;1695820;82;21149;-47
2021/04/01 00:47:51;;;;;;;0.30;0.30;;;;;;;6.44;57.58;101222.94;1705003;82;21183;-47
2021/04/01 00:50:23;;;;;;;1.02;0.95;;;;;;;6.46;57.69;101218.11;1705200;82;21243;-47
2021/04/01 00:52:51;;;;;;;0.98;0.65;;;;;;;6.49;57.80;101213.28;1705202;82;21097;-47
2021/04/01 00:55:18;;;;;;;0.25;0.25;;;;;;;6.49;57.93;101207.85;1702422;83;21588;-47
2021/04/01 00:57:49;;;;;;;3.87;1.27;;;;;;;6.50;58.00;101212.20;1698978;83;21185;-47
2021/04/01 01:00:21;;;;;;;2.02;0.88;;;;;;;6.49;58.08;101202.42;1727098;82;21161;-47
2021/04/01 01:02:48;;;;;;;1.12;0.88;;;;;;;6.48;58.26;101204.31;1727409;83;21169;-47
2021/04/01 01:05:18;;;;;;;0.50;0.50;;;;;;;6.46;58.37;101197.75;1722505;83;21196;-47
2021/04/01 01:07:46;;;;;;;4.90;1.72;;;;;;;6.45;58.50;101187.11;1700709;84;21146;-47
2021/04/01 01:10:20;;;;;;;0.62;0.62;;;;;;;6.44;58.70;101186.83;1707382;83;21185;-47
2021/04/01 01:12:49;;;;;;;0.50;0.50;;;;;;;6.41;58.83;101183.23;1707658;83;21564;-48
2021/04/01 01:15:16;;;;;;;0.20;0.20;;;;;;;6.40;58.97;101181.56;1733492;82;21580;-47
2021/04/01 01:17:45;;;;;;;2.58;0.80;;;;;;;6.38;59.12;101177.73;1733477;82;21130;-48
2021/04/01 01:20:14;;;;;;;0.35;0.35;;;;;;;6.37;59.25;101181.50;1723280;82;21165;-47
2021/04/01 01:22:44;;;;;;;0.50;0.50;;;;;;;6.34;59.40;101173.83;1694608;84;21219;-47
2021/04/01 01:25:13;;;;;;;1.07;0.30;;;;;;;6.33;59.64;101174.05;1692325;83;21373;-47
2021/04/01 01:27:40;;;;;;;0.57;0.57;;;;;;;6.29;59.80;101177.77;1696579;84;21143;-47
2021/04/01 01:30:13;;;;;;;0.72;0.70;;;;;;;6.29;59.94;101173.70;1706155;83;21176;-47
2021/04/01 01:32:43;;;;;;;1.32;1.22;;;;;;;6.27;60.04;101170.39;1698183;84;21624;-48
2021/04/01 01:35:18;;;;;;;1.40;0.50;;;;;;;6.25;60.20;101169.25;1672234;84;21145;-47
2021/04/01 01:37:52;;;;;;;0.40;0.40;;;;;;;6.23;60.34;101174.61;1698709;84;21142;-47
2021/04/01 01:40:21;;;;;;;2.75;1.45;;;;;;;6.20;60.46;101164.23;1700642;83;21528;-47
2021/04/01 01:42:49;;;;;;;0.55;0.50;;;;;;;6.17;60.66;101163.35;1694414;84;21948;-47
2021/04/01 01:45:17;;;;;;;6.22;1.85;;;;;;;6.13;60.82;101173.00;1727021;83;21159;-47
2021/04/01 01:47:45;;;;;;;0.85;0.85;;;;;;;6.09;61.03;101161.80;1690746;84;21475;-47
2021/04/01 01:50:14;;;;;;;2.92;0.68;;;;;;;6.06;61.14;101157.35;1726540;83;21169;-47
2021/04/01 01:52:41;;;;;;;1.82;1.05;;;;;;;6.02;61.29;101154.29;1696284;84;21143;-47
2021/04/01 01:55:10;;;;;;;1.47;1.37;;;;;;;5.97;61.46;101148.20;1701270;83;21140;-47
2021/04/01 01:57:38;;;;;;;0.10;0.10;;;;;;;5.95;61.64;101147.59;1708789;83;21143;-47
2021/04/01 02:00:15;;;;;;;0.85;0.85;;;;;;;5.91;61.79;101144.19;1738040;81;21184;-47
2021/04/01 02:02:53;;;;;;;0.28;0.28;;;;;;;5.86;61.96;101144.91;1754362;81;21165;-47
2021/04/01 02:05:24;;;;;;;0.68;0.68;;;;;;;5.82;62.16;101142.34;1756198;81;21190;-47
2021/04/01 02:07:52;;;;;;;0.40;0.40;;;;;;;5.76;62.33;101133.76;1734815;82;21102;-47
2021/04/01 02:10:25;;;;;;;0.95;0.93;;;;;;;5.70;62.55;101137.41;1724435;83;21151;-47
2021/04/01 02:12:55;;;;;;;1.42;1.15;;;;;;;5.64;62.88;101137.81;1756283;81;21691;-48
2021/04/01 02:15:27;;;;;;;0.30;0.30;;;;;;;5.59;63.15;101139.84;1733153;82;21398;-47
2021/04/01 02:18:16;;;;;;;0.82;0.50;;;;;;;5.56;63.36;101134.04;1705327;84;21137;-48
2021/04/01 02:20:55;;;;;;;1.15;1.15;;;;;;;5.58;63.64;101135.47;1847226;76;22677;-48
2021/04/01 02:23:33;;;;;;;0.00;0.00;;;;;;;5.51;63.75;101138.78;1812156;78;21177;-47
2021/04/01 02:26:02;;;;;;;1.22;0.85;;;;;;;5.47;63.89;101134.91;1785816;80;21121;-47
2021/04/01 02:28:32;;;;;;;0.47;0.47;;;;;;;5.44;64.08;101131.80;1785822;80;21121;-47
2021/04/01 02:31:02;;;;;;;0.98;0.95;;;;;;;5.38;64.26;101126.78;1754966;80;21541;-47
2021/04/01 02:33:31;;;;;;;0.60;0.60;;;;;;;5.33;64.50;101130.17;1785825;80;21565;-47
2021/04/01 02:35:59;;;;;;;1.30;1.02;;;;;;;5.28;64.67;101128.67;1785844;80;21139;-47
2021/04/01 02:38:26;;;;;;;0.30;0.30;;;;;;;5.25;64.89;101126.95;1785778;80;21846;-47
2021/04/01 02:40:55;;;;;;;0.40;0.40;;;;;;;5.18;65.03;101125.14;1785830;80;21692;-47
2021/04/01 02:43:33;;;;;;;0.47;0.47;;;;;;;5.12;65.28;101119.29;1785729;78;21138;-47
2021/04/01 02:46:05;;;;;;;3.02;0.37;;;;;;;5.10;65.55;101119.22;1785675;80;21141;-47
2021/04/01 02:48:33;;;;;;;0.70;0.60;;;;;;;5.09;65.81;101121.61;1785940;78;21168;-47
2021/04/01 02:51:02;;;;;;;0.05;0.05;;;;;;;5.07;65.97;101120.50;1785787;80;21126;-47
2021/04/01 02:53:30;;;;;;;0.55;0.55;;;;;;;5.05;66.18;101121.25;1785931;78;21126;-47
2021/04/01 02:55:58;;;;;;;1.70;1.37;;;;;;;5.04;66.30;101122.81;1785918;80;21134;-47
2021/04/01 02:58:25;;;;;;;0.03;0.03;;;;;;;5.02;66.41;101120.35;1785768;80;21117;-47
2021/04/01 03:00:54;;;;;;;1.20;1.02;;;;;;;5.00;66.57;101114.33;1786045;80;21150;-47
2021/04/01 03:03:30;;;;;;;0.50;0.50;;;;;;;5.00;66.73;101110.80;1785926;80;21250;-47
2021/04/01 03:05:57;;;;;;;3.58;0.40;;;;;;;4.98;66.81;101108.30;1785715;80;21153;-47
2021/04/01 03:08:25;;;;;;;6.92;0.75;;;;;;;4.96;67.00;101109.05;1785833;80;21588;-47
2021/04/01 03:10:54;;;;;;;0.50;0.50;;;;;;;4.96;67.06;101107.70;1785858;80;21126;-48
2021/04/01 03:13:22;;;;;;;0.37;0.37;;;;;;;4.95;67.25;101107.41;1786111;80;21114;-47
2021/04/01 03:15:50;;;;;;;4.20;1.90;;;;;;;4.95;67.31;101106.88;1785969;80;21141;-47
2021/04/01 03:18:20;;;;;;;1.22;0.88;;;;;;;4.99;67.37;101111.30;1785863;80;21246;-47
2021/04/01 03:20:48;;;;;;;0.45;0.40;;;;;;;4.99;67.47;101111.83;1793504;79;21389;-47
2021/04/01 03:23:17;;;;;;;1.75;0.47;;;;;;;4.99;67.60;101111.30;1794988;78;21732;-47
2021/04/01 03:25:45;;;;;;;0.23;0.23;;;;;;;5.01;67.61;101113.80;1795007;79;21141;-47
2021/04/01 03:28:13;;;;;;;0.35;0.35;;;;;;;5.01;67.66;101109.20;1794886;78;21129;-46
2021/04/01 03:30:47;;;;;;;0.40;0.20;;;;;;;5.03;67.62;101113.87;1794561;79;21148;-48
2021/04/01 03:33:10;;;;;;;0.53;0.53;;;;;;;5.07;67.57;101110.16;1793705;78;21133;-47
2021/04/01 03:35:37;;;;;;;0.98;0.35;;;;;;;5.08;67.57;101110.48;1794317;79;21535;-47
2021/04/01 03:38:06;;;;;;;0.35;0.35;;;;;;;5.10;67.56;101108.37;1794255;79;21125;-47
2021/04/01 03:40:34;;;;;;;2.72;1.02;;;;;;;5.10;67.58;101109.20;1794206;79;21149;-47
2021/04/01 03:43:02;;;;;;;0.15;0.15;;;;;;;5.13;67.58;101106.03;1794390;79;21154;-47
2021/04/01 03:45:29;;;;;;;0.80;0.68;;;;;;;5.17;67.53;101103.17;1794261;79;21105;-47
2021/04/01 03:47:58;;;;;;;1.55;0.57;;;;;;;5.21;67.53;101105.42;1794011;78;21145;-47
2021/04/01 03:50:25;;;;;;;1.70;1.42;;;;;;;5.22;67.55;101106.56;1794202;79;21165;-47
2021/04/01 03:52:53;;;;;;;1.87;1.32;;;;;;;5.26;67.46;101102.32;1794509;79;21158;-47
2021/04/01 04:04:02;;;;;;;3.12;0.45;;;;;;;5.52;66.95;101098.98;1794310;79;21476;-47
2021/04/01 04:09:26;;;;;;;0.50;0.35;;;;;;;5.65;66.75;101091.18;1793779;79;21144;-48
2021/04/01 04:11:41;;;;;;;2.45;0.57;;;;;;;5.72;66.55;101097.34;1790854;79;21108;-48
2021/04/01 04:14:12;;;;;;;0.33;0.33;;;;;;;5.78;66.37;101099.11;1794447;79;21142;-47
2021/04/01 04:16:36;;;;;;;0.85;0.42;;;;;;;5.85;66.21;101096.30;1794101;79;21218;-48
2021/04/01 04:19:04;;;;;;;1.25;1.25;;;;;;;5.90;66.06;101090.47;1794182;79;21225;-47
2021/04/01 04:21:32;;;;;;;0.75;0.75;;;;;;;5.96;65.99;101090.94;1794332;79;21137;-48
2021/04/01 04:24:02;;;;;;;0.08;0.08;;;;;;;6.01;65.80;101093.78;1794205;79;21536;-47
2021/04/01 04:26:29;;;;;;;1.17;0.53;;;;;;;6.08;65.65;101095.55;1794191;79;21156;-47
2021/04/01 04:28:57;;;;;;;1.42;1.35;;;;;;;6.12;65.48;101089.42;1794195;79;21157;-47
2021/04/01 04:31:24;;;;;;;3.12;1.75;;;;;;;6.18;65.41;101084.94;1794286;79;21164;-47
2021/04/01 04:33:51;;;;;;;5.87;2.12;;;;;;;6.23;65.16;101083.70;1767114;79;21121;-46
2021/04/01 04:36:19;;;;;;;4.78;1.47;;;;;;;6.29;64.99;101084.13;1794101;79;21105;-46
2021/04/01 04:38:49;;;;;;;0.72;0.57;;;;;;;6.33;64.89;101085.32;1794034;78;21238;-47
2021/04/01 04:41:16;;;;;;;2.60;2.12;;;;;;;6.38;64.81;101081.37;1794045;79;21146;-46
2021/04/01 04:43:44;;;;;;;4.53;0.62;;;;;;;6.44;64.69;101079.59;1794041;79;21430;-46
2021/04/01 04:46:12;;;;;;;0.20;0.20;;;;;;;6.52;64.64;101080.58;1793959;79;21134;-49
2021/04/01 04:48:39;;;;;;;1.65;1.55;;;;;;;6.62;64.48;101073.20;1767935;79;21154;-47
2021/04/01 04:51:07;;;;;;;1.20;1.07;;;;;;;6.71;64.30;101070.42;1793620;79;21133;-47
2021/04/01 04:53:34;;;;;;;1.45;0.93;;;;;;;6.81;64.16;101073.34;1779998;79;21444;-47
2021/04/01 04:58:51;;;;;;;1.12;1.12;;;;;;;7.03;63.63;101064.56;1789557;79;21123;-47
2021/04/01 05:09:16;;;;;;;6.05;2.55;;;;;;;7.52;62.48;101055.45;1793999;78;21143;-48
2021/04/01 05:11:43;;;;;;;0.88;0.85;;;;;;;7.67;62.23;101057.08;1793566;79;21452;-48
2021/04/01 05:14:11;;;;;;;1.57;0.93;;;;;;;7.79;61.81;101051.58;1794270;79;21122;-47
2021/04/01 05:16:39;;;;;;;3.60;1.57;;;;;;;7.92;61.54;101047.70;1794156;79;21110;-48
2021/04/01 05:19:09;;;;;;;4.22;1.35;;;;;;;8.05;61.10;101041.09;1794036;78;21936;-47
2021/04/01 05:24:18;;;;;;;1.60;0.82;;;;;;;8.32;60.68;101035.80;1781713;78;21205;-47
2021/04/01 05:31:52;;;;;;;1.40;1.30;;;;;;;8.83;59.06;101025.62;1844843;76;22660;-47
2021/04/01 05:34:21;;;;;;;1.42;1.32;;;;;;;8.93;58.96;101027.11;1734885;81;21099;-46
2021/04/01 05:36:50;;;;;;;0.70;0.70;;;;;;;9.09;58.59;101027.28;1692416;83;21183;-47
2021/04/01 05:39:21;;;;;;;2.77;1.45;;;;;;;9.24;58.42;101027.45;1714787;82;21005;-47
2021/04/01 05:41:49;;;;;;;0.37;0.37;;;;;;;9.40;57.99;101026.54;1747422;81;21129;-47
2021/04/01 05:49:51;;;;;;;1.75;1.00;;;;;;;9.90;56.52;101015.79;1765607;80;21154;-47
2021/04/01 05:55:47;;;;;;;8.05;1.55;;;;;;;10.26;55.49;101010.59;1720984;83;21628;-47
2021/04/01 06:05:46;;;;;;;1.17;1.07;;;;;;;10.96;54.19;100997.56;1746537;81;21049;-48
2021/04/01 06:08:17;;;;;;;3.17;0.62;;;;;;;11.14;53.90;100998.97;1747298;81;21118;-47
2021/04/01 06:10:45;;;;;;;0.98;0.98;;;;;;;11.31;52.98;100985.06;1748091;81;21182;-47
2021/04/01 06:13:14;;;;;;;2.77;1.62;;;;;;;11.50;52.14;100983.15;1725437;82;21150;-46
2021/04/01 06:15:49;;;;;;;4.25;2.27;;;;;;;11.66;51.61;100982.08;1730964;81;21166;-46
2021/04/01 06:18:20;;;;;;;1.45;1.17;;;;;;;11.82;51.37;100977.44;1727859;82;21778;-46
2021/04/01 06:20:50;;;;;;;1.57;1.15;;;;;;;12.00;51.58;100974.70;1717543;83;21185;-46
2021/04/01 06:23:29;;;;;;;2.90;1.35;;;;;;;12.20;50.90;100971.11;1724054;83;21268;-46
2021/04/01 06:25:57;;;;;;;1.75;1.22;;;;;;;12.40;50.00;100966.93;1750557;81;21597;-46
2021/04/01 06:28:42;;;;;;;0.65;0.65;;;;;;;12.58;49.13;100970.16;1740459;81;21212;-46
2021/04/01 06:31:08;;;;;;;1.75;1.02;;;;;;;12.74;48.37;100975.05;1724513;81;21169;-46
2021/04/01 06:33:52;;;;;;;7.65;1.52;;;;;;;12.89;48.43;100972.22;1708029;82;21197;-46
2021/04/01 06:36:22;;;;;;;0.72;0.72;;;;;;;13.01;48.32;100969.97;1760052;81;21213;-45
2021/04/01 06:38:50;;;;;;;0.60;0.60;;;;;;;13.22;48.12;100963.78;1758396;81;21122;-42
2021/04/01 06:41:25;;;;;;;0.80;0.60;;;;;;;13.43;47.21;100969.19;1745963;81;21146;-42
2021/04/01 06:44:01;;;;;;;1.52;1.40;;;;;;;13.58;46.95;100964.95;1728675;82;21201;-42
2021/04/01 06:46:31;;;;;;;0.50;0.50;;;;;;;13.78;46.58;100961.20;1730381;81;21234;-41
2021/04/01 06:54:32;;;;;;;2.22;1.80;;;;;;;14.27;45.78;100954.67;1800426;78;21510;-46
2021/04/01 06:57:37;;;;;;;1.32;0.62;;;;;;;14.47;45.31;100950.88;1785415;80;21138;-46
2021/04/01 07:02:43;;;;;;;0.47;0.25;;;;;;;14.86;44.05;100940.23;1766879;80;21624;-46
2021/04/01 07:08:01;;;;;;;0.72;0.72;;;;;;;15.20;42.87;100934.48;1846742;76;23186;-46
2021/04/01 07:10:44;;;;;;;0.30;0.25;;;;;;;15.28;43.24;100932.98;1785490;80;21584;-46
2021/04/01 07:13:14;;;;;;;1.07;0.95;;;;;;;15.40;43.38;100934.72;1780099;78;21584;-46
2021/04/01 07:15:46;;;;;;;3.55;1.07;;;;;;;15.55;42.06;100930.09;1780615;80;21930;-46
2021/04/01 07:45:55;;;;;;;1.47;1.07;;;;;;;16.95;40.71;100908.64;1718375;82;21588;-43
2021/04/01 07:48:04;;;;;;;1.30;1.20;;;;;;;17.26;39.84;100902.38;1726299;82;21149;-43
2021/04/01 07:50:39;;;;;;;2.47;2.27;;;;;;;17.45;39.32;100908.54;1698450;82;21125;-47
2021/04/01 07:53:06;;;;;;;1.27;0.85;;;;;;;17.57;39.11;100899.11;1719973;82;21146;-43
2021/04/01 08:06:29;;;;;;;1.35;1.10;;;;;;;17.94;38.89;100897.07;1728442;81;21261;-44
2021/04/01 08:11:44;;;;;;;2.90;0.93;;;;;;;18.04;38.66;100891.25;1829759;76;23284;-44
2021/04/01 08:17:06;;;;;;;0.70;0.70;;;;;;;17.88;38.76;100873.48;1864703;74;22678;-43
2021/04/01 08:19:29;;;;;;;0.60;0.60;;;;;;;17.80;39.00;100877.84;1827795;75;21159;-44
2021/04/01 08:21:59;;;;;;;0.65;0.40;;;;;;;17.76;39.63;100876.80;1827669;77;21513;-44
2021/04/01 08:35:37;;;;;;;0.78;0.78;;;;;;;17.75;40.14;100853.61;1818402;77;21516;-44
2021/04/01 08:38:11;;;;;;;0.68;0.68;;;;;;;17.69;40.87;100849.37;1794882;77;21167;-44
2021/04/01 08:40:43;;;;;;;1.10;0.78;;;;;;;17.69;42.22;100841.08;1786131;78;21158;-45
2021/04/01 08:43:51;;;;;;;0.68;0.65;;;;;;;17.71;40.83;100845.72;1789731;78;21118;-44
2021/04/01 08:46:56;;;;;;;1.40;0.55;;;;;;;17.72;40.23;100838.48;1827674;77;21142;-44
2021/04/01 08:49:45;;;;;;;3.92;0.93;;;;;;;17.67;40.73;100848.86;1824102;77;21115;-48
2021/04/01 08:52:55;;;;;;;0.62;0.60;;;;;;;17.69;41.38;100839.70;1854074;77;21494;-48
2021/04/01 08:55:31;;;;;;;0.82;0.57;;;;;;;17.74;41.38;100836.79;1822116;77;21423;-45
2021/04/01 08:58:14;;;;;;;1.02;0.72;;;;;;;17.85;40.90;100831.24;1820717;78;21154;-44
2021/04/01 09:00:42;;;;;;;0.80;0.62;;;;;;;17.98;39.88;100828.95;1820824;77;21415;-49
2021/04/01 09:03:15;;;;;;;1.65;1.17;;;;;;;18.15;39.46;100825.97;1824465;77;21143;-49
2021/04/01 09:05:53;;;;;;;3.25;1.60;;;;;;;18.22;39.38;100820.25;1770799;77;21187;-48
2021/04/01 09:08:25;;;;;;;0.82;0.60;;;;;;;18.31;39.32;100811.95;1827565;77;21546;-49
2021/04/01 09:10:55;;;;;;;0.57;0.40;;;;;;;18.45;38.94;100804.91;1746142;80;21117;-44
2021/04/01 09:13:32;;;;;;;1.05;0.98;;;;;;;18.55;38.66;100806.54;1772769;80;21135;-44
2021/04/01 09:18:30;;;;;;;1.87;0.90;;;;;;;18.57;38.85;100800.09;1775669;80;21139;-43
2021/04/01 09:21:01;;;;;;;0.90;0.33;;;;;;;18.65;38.75;100800.68;1779490;79;21453;-44
2021/04/01 09:23:38;;;;;;;3.20;1.82;;;;;;;18.74;38.40;100795.94;1761492;80;21127;-49
2021/04/01 09:26:09;;;;;;;1.40;1.10;;;;;;;18.85;38.63;100790.36;1771619;79;21139;-49
2021/04/01 09:28:41;;;;;;;1.17;0.80;;;;;;;18.98;37.92;100786.36;1767277;80;21562;-43
2021/04/01 09:31:11;;;;;;;;;;;;;;;19.03;38.18;100780.64;1772919;79;21107;-49
2021/04/01 09:33:41;;;;;;;0.70;0.70;;;;;;;19.02;37.75;100779.03;1777142;80;20242;-49
2021/04/01 09:36:14;;;;;;;1.32;1.02;;;;;;;19.00;37.63;100781.31;1753598;80;21592;-44
2021/04/01 09:38:45;;;;;;;0.98;0.98;;;;;;;18.96;37.86;100778.94;1771190;80;21167;-45
2021/04/01 09:41:30;;;;;;;1.17;0.88;;;;;;;18.97;38.71;100772.28;1777442;79;21572;-48
2021/04/01 09:44:06;;;;;;;2.02;0.45;;;;;;;19.02;38.16;100767.38;1761894;80;21134;-45
2021/04/01 09:46:58;;;;;;;0.40;0.40;;;;;;;19.08;38.43;100766.63;1781166;80;21123;-49
2021/04/01 09:49:30;;;;;;;0.57;0.57;;;;;;;19.09;38.41;100764.92;1769353;80;21142;-44
2021/04/01 09:51:59;;;;;;;5.37;2.95;;;;;;;19.12;37.59;100750.98;1772922;80;27063;-49
2021/04/01 09:54:26;;;;;;;1.35;0.68;;;;;;;19.13;37.58;100750.63;1761997;81;21135;-45
2021/04/01 09:56:57;;;;;;;0.55;0.55;;;;;;;19.27;37.45;100746.87;1761871;81;21103;-43
2021/04/01 10:02:11;;;;;;;0.65;0.53;;;;;;;19.29;37.36;100754.28;1770637;80;21174;-44
2021/04/01 10:04:38;;;;;;;0.65;0.47;;;;;;;19.33;36.73;100743.56;1755026;80;21145;-49
2021/04/01 10:07:15;;;;;;;0.65;0.65;;;;;;;19.29;36.86;100745.39;1752351;80;21119;-44
2021/04/01 10:09:50;;;;;;;1.05;0.95;;;;;;;19.29;36.96;100739.05;1785346;78;21143;-45
2021/04/01 10:12:20;;;;;;;1.32;0.70;;;;;;;19.32;37.11;100730.86;1801978;78;21162;-47
2021/04/01 10:14:52;;;;;;;1.55;1.12;;;;;;;19.41;36.71;100717.54;1765066;79;21037;-49
2021/04/01 10:17:21;;;;;;;1.67;0.98;;;;;;;19.41;36.71;100717.54;1770723;80;21178;-49
2021/04/01 10:19:56;;;;;;;1.37;1.27;;;;;;;19.37;36.87;100722.14;1757253;80;21203;-45
2021/04/01 10:22:35;;;;;;;2.10;1.07;;;;;;;19.37;36.87;100722.14;1788541;78;21477;-50
2021/04/01 10:25:18;;;;;;;1.35;1.00;;;;;;;19.37;36.54;100720.76;1731128;80;21138;-50
2021/04/01 10:27:58;;;;;;;0.25;0.25;;;;;;;19.36;37.04;100714.95;1785715;79;21494;-49
2021/04/01 10:30:31;;;;;;;1.42;1.27;;;;;;;19.42;36.98;100717.80;1761434;80;21603;-49
2021/04/01 10:33:22;;;;;;;0.57;0.53;;;;;;;19.52;36.25;100711.30;1773167;80;21170;-49
2021/04/01 10:35:50;;;;;;;2.37;0.70;;;;;;;19.49;36.65;100709.20;1752050;80;21152;-49
2021/04/01 10:38:18;;;;;;;1.12;0.78;;;;;;;19.49;36.68;100704.24;1744254;81;21285;-49
2021/04/01 10:40:48;;;;;;;1.27;0.88;;;;;;;19.46;36.62;100696.02;1766979;80;21139;-49
2021/04/01 10:43:18;;;;;;;2.40;1.22;;;;;;;19.45;36.74;100697.73;1786360;80;21628;-49
2021/04/01 10:45:46;;;;;;;0.53;0.40;;;;;;;19.52;36.88;100692.48;1762135;80;21227;-50
2021/04/01 10:48:33;;;;;;;0.90;0.90;;;;;;;19.53;37.00;100687.16;1762409;80;21558;-50
2021/04/01 10:51:04;;;;;;;0.85;0.82;;;;;;;19.52;37.03;100689.70;1735888;80;21182;-50
2021/04/01 10:53:31;;;;;;;0.70;0.45;;;;;;;19.60;36.37;100693.00;1762363;80;21114;-45
2021/04/01 10:56:04;;;;;;;1.45;1.35;;;;;;;19.64;36.45;100688.42;1762014;81;21162;-45
2021/04/01 10:58:32;;;;;;;1.77;0.70;;;;;;;19.71;36.89;100676.27;1767399;80;21594;-50
2021/04/01 11:01:01;;;;;;;2.00;0.95;;;;;;;19.75;37.40;100671.65;1764966;79;21612;-45
2021/04/01 11:03:32;;;;;;;2.30;1.15;;;;;;;19.88;36.60;100673.12;1782776;80;21115;-45
2021/04/01 11:05:59;;;;;;;1.95;0.80;;;;;;;20.09;36.27;100668.98;1763400;80;21190;-45
2021/04/01 11:08:27;;;;;;;2.02;0.70;;;;;;;20.23;35.96;100663.14;1746021;80;21158;-50
2021/04/01 11:11:00;;;;;;;0.40;0.40;;;;;;;20.30;35.68;100655.92;1770981;80;21171;-50
2021/04/01 11:13:35;;;;;;;0.60;0.60;;;;;;;20.39;35.41;100656.63;1755340;80;21121;-50
2021/04/01 11:16:05;;;;;;;0.90;0.75;;;;;;;20.40;35.18;100650.53;1762531;80;21131;-50
2021/04/01 11:18:39;;;;;;;0.35;0.35;;;;;;;20.38;35.33;100643.92;1762636;80;21146;-50
2021/04/01 11:21:07;;;;;;;0.35;0.30;;;;;;;20.48;35.18;100639.11;1737620;80;21427;-50
2021/04/01 11:23:35;;;;;;;1.02;0.78;;;;;;;20.50;35.29;100643.16;1686986;80;21131;-51
2021/04/01 11:26:03;;;;;;;1.10;1.00;;;;;;;20.53;36.28;100631.37;1727339;80;21171;-50
2021/04/01 11:28:44;;;;;;;2.12;1.25;;;;;;;20.57;35.61;100632.34;1763365;80;21131;-50
2021/04/01 11:31:28;;;;;;;1.07;0.98;;;;;;;20.60;36.10;100635.02;1766919;80;21115;-45
2021/04/01 11:33:57;;;;;;;0.62;0.30;;;;;;;20.60;35.80;100624.72;1792309;78;21123;-46
2021/04/01 11:36:30;;;;;;;3.33;0.70;;;;;;;20.71;36.44;100622.88;1780923;80;21596;-50
2021/04/01 11:39:03;;;;;;;1.02;1.02;;;;;;;20.83;36.07;100611.80;1779728;80;21183;-50
2021/04/01 11:41:28;;;;;;;0.98;0.78;;;;;;;20.91;34.84;100612.27;1763192;81;21194;-50
2021/04/01 11:43:58;;;;;;;1.05;0.70;;;;;;;20.93;35.41;100604.41;1788550;78;21090;-50
2021/04/01 11:46:28;;;;;;;1.80;1.17;;;;;;;21.04;35.54;100601.41;1783780;79;21174;-50
2021/04/01 11:48:58;;;;;;;2.58;1.20;;;;;;;21.22;34.57;100598.41;1775702;80;21004;-45
2021/04/01 11:51:32;;;;;;;0.88;0.50;;;;;;;21.36;33.83;100591.89;1759033;80;21092;-50
2021/04/01 11:54:00;;;;;;;1.55;0.95;;;;;;;21.35;33.17;100587.50;1758913;78;21608;-49
2021/04/01 11:56:41;;;;;;;0.80;0.80;;;;;;;21.09;34.10;100591.20;1769506;79;21529;-45
2021/04/01 11:59:13;;;;;;;1.45;1.05;;;;;;;20.85;34.44;100582.31;1758254;80;21168;-45
2021/04/01 12:02:10;;;;;;;2.92;1.60;;;;;;;20.76;35.03;100576.27;1762670;80;21190;-45
2021/04/01 12:04:39;;;;;;;1.27;0.88;;;;;;;20.78;35.07;100581.48;1753019;80;21111;-50
2021/04/01 12:07:08;;;;;;;1.82;0.70;;;;;;;20.89;34.91;100569.33;1776035;80;21153;-50
2021/04/01 12:09:36;;;;;;;0.85;0.85;;;;;;;20.97;34.81;100570.62;1762040;80;21119;-50
2021/04/01 12:12:06;;;;;;;0.35;0.35;;;;;;;20.94;35.19;100560.19;1733624;81;21159;-49
2021/04/01 12:14:38;;;;;;;0.82;0.75;;;;;;;20.85;34.70;100559.50;1782322;80;21115;-44
2021/04/01 12:17:06;;;;;;;0.40;0.40;;;;;;;20.78;35.64;100552.33;1764558;80;21156;-49
2021/04/01 12:19:35;;;;;;;2.37;0.78;;;;;;;20.76;35.96;100547.69;1783837;80;21123;-50
2021/04/01 12:22:09;;;;;;;1.87;1.40;;;;;;;20.69;35.83;100537.73;1769455;80;21131;-45
2021/04/01 12:24:39;;;;;;;2.52;1.37;;;;;;;20.65;35.51;100536.79;1767746;79;21150;-44
2021/04/01 12:27:07;;;;;;;2.20;1.60;;;;;;;20.74;34.95;100537.50;1761161;81;21126;-45
2021/04/01 12:29:45;;;;;;;1.77;1.05;;;;;;;20.76;35.11;100536.58;1738672;79;21174;-50
2021/04/01 12:32:30;;;;;;;0.80;0.70;;;;;;;20.99;35.15;100530.81;1847259;76;22670;-49
2021/04/01 12:35:13;;;;;;;1.40;1.30;;;;;;;21.18;35.49;100528.81;1751268;79;21805;-49
2021/04/01 12:37:43;;;;;;;1.55;0.85;;;;;;;21.33;33.99;100525.09;1769195;78;21565;-49
2021/04/01 12:40:15;;;;;;;0.62;0.62;;;;;;;21.43;33.72;100519.88;1747257;80;21131;-49
2021/04/01 12:42:45;;;;;;;0.50;0.50;;;;;;;21.42;34.38;100507.15;1709632;83;21133;-49
2021/04/01 12:45:22;;;;;;;1.98;0.72;;;;;;;21.25;34.70;100506.00;1732206;82;21189;-50
2021/04/01 12:48:08;;;;;;;0.57;0.57;;;;;;;21.08;34.90;100502.09;1731773;82;21130;-45
2021/04/01 12:50:42;;;;;;;0.95;0.70;;;;;;;21.06;34.98;100498.27;1713885;82;21201;-44
2021/04/01 12:53:10;;;;;;;1.20;1.15;;;;;;;21.07;34.35;100499.90;1747202;81;21190;-44
2021/04/01 12:58:25;;;;;;;4.65;1.87;;;;;;;20.74;35.00;100484.74;1704775;83;21126;-49
2021/04/01 13:03:34;;;;;;;0.78;0.78;;;;;;;20.60;34.59;100482.33;1838744;76;22745;-49
2021/04/01 13:06:10;;;;;;;1.27;1.07;;;;;;;20.38;35.12;100482.16;1784966;80;21537;-44
2021/04/01 13:08:52;;;;;;;0.37;0.37;;;;;;;20.24;35.55;100477.51;1784782;80;21174;-50
2021/04/01 13:11:16;;;;;;;0.60;0.60;;;;;;;20.15;36.01;100475.66;1783971;80;21177;-49
2021/04/01 13:13:46;;;;;;;0.37;0.37;;;;;;;20.17;35.79;100469.16;1782054;80;21134;-44
2021/04/01 13:16:14;;;;;;;1.82;1.72;;;;;;;20.29;35.83;100466.19;1782707;80;21090;-50
2021/04/01 13:18:43;;;;;;;0.55;0.55;;;;;;;20.38;35.62;100462.16;1785785;80;21397;-49
2021/04/01 13:21:36;;;;;;;0.68;0.60;;;;;;;20.43;35.44;100463.89;1777637;78;21120;-49
2021/04/01 13:26:58;;;;;;;2.35;1.00;;;;;;;20.69;34.60;100444.72;1906232;74;22640;-45
2021/04/01 13:29:30;;;;;;;0.60;0.60;;;;;;;20.63;34.98;100444.16;1838562;76;21448;-44
2021/04/01 13:32:00;;;;;;;0.88;0.88;;;;;;;20.72;34.38;100442.62;1833970;77;21153;-44
2021/04/01 13:39:46;;;;;;;0.68;0.68;;;;;;;20.65;35.15;100436.84;1826928;77;21570;-45
2021/04/01 13:44:43;;;;;;;1.07;1.07;;;;;;;20.69;35.01;100430.84;1818351;78;21187;-44
2021/04/01 13:47:10;;;;;;;0.70;0.70;;;;;;;20.75;34.75;100422.52;1824246;78;21087;-49
2021/04/01 13:49:41;;;;;;;2.80;0.88;;;;;;;20.72;34.86;100424.58;1824994;78;21506;-49
2021/04/01 13:57:47;;;;;;;0.72;0.72;;;;;;;20.32;34.74;100405.83;1824643;78;21174;-49
2021/04/01 14:11:17;;;;;;;0.40;0.40;;;;;;;19.90;36.30;100392.14;1859935;76;21115;-49
2021/04/01 14:13:45;;;;;;;2.83;1.00;;;;;;;19.85;36.19;100383.47;1833374;76;21098;-49
2021/04/01 14:16:15;;;;;;;1.70;0.95;;;;;;;19.79;36.81;100377.92;1824648;78;21544;-45
2021/04/01 14:18:47;;;;;;;0.85;0.85;;;;;;;19.75;36.73;100387.48;1824679;78;21099;-46